sensor_id;sensor_type;location;lat;lon;timestamp;P1;durP1;ratioP1;P2;durP2;ratioP2
81934;SDS011;71405;47.674;-2.050;2024-02-04T00:00:47;3.92;;;2.03;;
81934;SDS011;71405;47.674;-2.050;2024-02-04T00:03:13;3.05;;;1.83;;
81934;SDS011;71405;47.674;-2.050;2024-02-04T00:05:39;3.42;;;1.75;;
81934;SDS011;71405;47.674;-2.050;2024-02-04T00:08:04;3.38;;;1.83;;
81934;SDS011;71405;47.674;-2.050;2024-02-04T00:10:30;2.97;;;1.92;;
81934;SDS011;71405;47.674;-2.050;2024-02-04T00:12:56;4.28;;;2.10;;
81934;SDS011;71405;47.674;-2.050;2024-02-04T00:15:22;2.80;;;1.88;;
81934;SDS011;71405;47.674;-2.050;2024-02-04T00:17:47;4.32;;;1.80;;
81934;SDS011;71405;47.674;-2.050;2024-02-04T00:20:13;4.05;;;1.90;;
81934;SDS011;71405;47.674;-2.050;2024-02-04T00:22:39;3.17;;;1.73;;
81934;SDS011;71405;47.674;-2.050;2024-02-04T00:25:04;3.70;;;2.10;;
81934;SDS011;71405;47.674;-2.050;2024-02-04T00:27:33;3.25;;;1.90;;
81934;SDS011;71405;47.674;-2.050;2024-02-04T00:29:59;4.13;;;2.30;;
81934;SDS011;71405;47.674;-2.050;2024-02-04T00:32:25;3.25;;;2.00;;
81934;SDS011;71405;47.674;-2.050;2024-02-04T00:34:52;3.78;;;1.90;;
81934;SDS011;71405;47.674;-2.050;2024-02-04T00:37:18;3.20;;;1.90;;
81934;SDS011;71405;47.674;-2.050;2024-02-04T00:39:44;3.88;;;2.08;;
81934;SDS011;71405;47.674;-2.050;2024-02-04T00:42:10;4.63;;;2.20;;
81934;SDS011;71405;47.674;-2.050;2024-02-04T00:44:36;4.53;;;2.00;;
81934;SDS011;71405;47.674;-2.050;2024-02-04T00:47:02;3.78;;;1.98;;
81934;SDS011;71405;47.674;-2.050;2024-02-04T00:49:28;5.10;;;2.17;;
81934;SDS011;71405;47.674;-2.050;2024-02-04T00:51:53;5.22;;;2.40;;
81934;SDS011;71405;47.674;-2.050;2024-02-04T00:54:19;3.33;;;2.03;;
81934;SDS011;71405;47.674;-2.050;2024-02-04T00:56:45;7.18;;;2.40;;
81934;SDS011;71405;47.674;-2.050;2024-02-04T00:59:10;3.10;;;1.85;;
81934;SDS011;71405;47.674;-2.050;2024-02-04T01:01:37;6.90;;;2.70;;
81934;SDS011;71405;47.674;-2.050;2024-02-04T01:04:03;4.15;;;2.22;;
81934;SDS011;71405;47.674;-2.050;2024-02-04T01:06:29;4.30;;;2.20;;
81934;SDS011;71405;47.674;-2.050;2024-02-04T01:08:58;4.50;;;2.33;;
81934;SDS011;71405;47.674;-2.050;2024-02-04T01:11:24;3.03;;;1.75;;
81934;SDS011;71405;47.674;-2.050;2024-02-04T01:13:49;4.75;;;2.08;;
81934;SDS011;71405;47.674;-2.050;2024-02-04T01:16:15;4.70;;;1.95;;
81934;SDS011;71405;47.674;-2.050;2024-02-04T01:18:41;3.22;;;1.90;;
81934;SDS011;71405;47.674;-2.050;2024-02-04T01:21:06;3.85;;;2.00;;
81934;SDS011;71405;47.674;-2.050;2024-02-04T01:23:34;4.55;;;2.30;;
81934;SDS011;71405;47.674;-2.050;2024-02-04T01:25:59;4.00;;;2.00;;
81934;SDS011;71405;47.674;-2.050;2024-02-04T01:28:25;3.35;;;1.77;;
81934;SDS011;71405;47.674;-2.050;2024-02-04T01:30:51;4.03;;;2.05;;
81934;SDS011;71405;47.674;-2.050;2024-02-04T01:33:16;3.47;;;1.90;;
81934;SDS011;71405;47.674;-2.050;2024-02-04T01:35:42;4.05;;;2.00;;
81934;SDS011;71405;47.674;-2.050;2024-02-04T01:38:08;3.25;;;1.80;;
81934;SDS011;71405;47.674;-2.050;2024-02-04T01:40:33;2.97;;;1.90;;
81934;SDS011;71405;47.674;-2.050;2024-02-04T01:42:59;3.08;;;1.83;;
81934;SDS011;71405;47.674;-2.050;2024-02-04T01:45:25;3.60;;;1.90;;
81934;SDS011;71405;47.674;-2.050;2024-02-04T01:47:50;3.53;;;1.90;;
81934;SDS011;71405;47.674;-2.050;2024-02-04T01:50:16;4.28;;;1.90;;
81934;SDS011;71405;47.674;-2.050;2024-02-04T01:52:42;3.47;;;1.80;;
81934;SDS011;71405;47.674;-2.050;2024-02-04T01:55:09;3.55;;;2.00;;
81934;SDS011;71405;47.674;-2.050;2024-02-04T01:57:36;3.55;;;1.90;;
81934;SDS011;71405;47.674;-2.050;2024-02-04T02:00:02;4.40;;;2.20;;
81934;SDS011;71405;47.674;-2.050;2024-02-04T02:02:29;4.90;;;1.92;;
81934;SDS011;71405;47.674;-2.050;2024-02-04T02:04:56;5.03;;;1.90;;
81934;SDS011;71405;47.674;-2.050;2024-02-04T02:07:23;3.70;;;1.85;;
81934;SDS011;71405;47.674;-2.050;2024-02-04T02:09:52;2.78;;;1.90;;
81934;SDS011;71405;47.674;-2.050;2024-02-04T02:12:19;3.05;;;1.88;;
81934;SDS011;71405;47.674;-2.050;2024-02-04T02:14:54;3.65;;;1.88;;
81934;SDS011;71405;47.674;-2.050;2024-02-04T02:17:45;3.55;;;2.08;;
81934;SDS011;71405;47.674;-2.050;2024-02-04T02:23:14;2.97;;;1.85;;
81934;SDS011;71405;47.674;-2.050;2024-02-04T02:25:53;3.05;;;1.80;;
81934;SDS011;71405;47.674;-2.050;2024-02-04T02:28:21;4.18;;;1.95;;
81934;SDS011;71405;47.674;-2.050;2024-02-04T02:30:46;3.95;;;2.03;;
81934;SDS011;71405;47.674;-2.050;2024-02-04T02:33:12;3.17;;;1.65;;
81934;SDS011;71405;47.674;-2.050;2024-02-04T02:35:38;3.90;;;1.88;;
81934;SDS011;71405;47.674;-2.050;2024-02-04T02:41:08;2.72;;;1.80;;
81934;SDS011;71405;47.674;-2.050;2024-02-04T02:43:37;2.95;;;1.60;;
81934;SDS011;71405;47.674;-2.050;2024-02-04T02:46:06;2.92;;;1.80;;
81934;SDS011;71405;47.674;-2.050;2024-02-04T02:48:32;3.95;;;1.90;;
81934;SDS011;71405;47.674;-2.050;2024-02-04T02:50:58;3.63;;;2.08;;
81934;SDS011;71405;47.674;-2.050;2024-02-04T02:53:24;3.78;;;1.95;;
81934;SDS011;71405;47.674;-2.050;2024-02-04T02:55:49;3.33;;;1.80;;
81934;SDS011;71405;47.674;-2.050;2024-02-04T02:58:15;2.78;;;1.85;;
81934;SDS011;71405;47.674;-2.050;2024-02-04T03:00:41;3.38;;;2.20;;
81934;SDS011;71405;47.674;-2.050;2024-02-04T03:03:06;3.38;;;1.85;;
81934;SDS011;71405;47.674;-2.050;2024-02-04T03:05:32;3.10;;;1.55;;
81934;SDS011;71405;47.674;-2.050;2024-02-04T03:07:58;3.03;;;1.75;;
81934;SDS011;71405;47.674;-2.050;2024-02-04T03:10:24;3.28;;;1.55;;
81934;SDS011;71405;47.674;-2.050;2024-02-04T03:12:49;2.92;;;1.80;;
81934;SDS011;71405;47.674;-2.050;2024-02-04T03:15:15;2.80;;;1.65;;
81934;SDS011;71405;47.674;-2.050;2024-02-04T03:17:42;4.97;;;2.10;;
81934;SDS011;71405;47.674;-2.050;2024-02-04T03:20:08;3.30;;;2.00;;
81934;SDS011;71405;47.674;-2.050;2024-02-04T03:22:35;3.33;;;1.90;;
81934;SDS011;71405;47.674;-2.050;2024-02-04T03:25:00;3.30;;;1.75;;
81934;SDS011;71405;47.674;-2.050;2024-02-04T03:27:26;2.85;;;1.63;;
81934;SDS011;71405;47.674;-2.050;2024-02-04T03:29:51;3.15;;;1.67;;
81934;SDS011;71405;47.674;-2.050;2024-02-04T03:32:17;3.20;;;1.70;;
81934;SDS011;71405;47.674;-2.050;2024-02-04T03:34:43;3.33;;;1.73;;
81934;SDS011;71405;47.674;-2.050;2024-02-04T03:37:09;3.15;;;1.80;;
81934;SDS011;71405;47.674;-2.050;2024-02-04T03:39:35;3.40;;;1.77;;
81934;SDS011;71405;47.674;-2.050;2024-02-04T03:42:00;3.13;;;1.65;;
81934;SDS011;71405;47.674;-2.050;2024-02-04T03:44:26;2.70;;;1.50;;
81934;SDS011;71405;47.674;-2.050;2024-02-04T03:46:52;2.95;;;1.60;;
81934;SDS011;71405;47.674;-2.050;2024-02-04T03:49:17;2.70;;;1.60;;
81934;SDS011;71405;47.674;-2.050;2024-02-04T03:51:43;3.30;;;1.60;;
81934;SDS011;71405;47.674;-2.050;2024-02-04T03:54:09;3.13;;;1.52;;
81934;SDS011;71405;47.674;-2.050;2024-02-04T03:56:35;4.30;;;1.75;;
81934;SDS011;71405;47.674;-2.050;2024-02-04T03:59:00;4.55;;;2.00;;
81934;SDS011;71405;47.674;-2.050;2024-02-04T04:01:26;2.92;;;1.60;;
81934;SDS011;71405;47.674;-2.050;2024-02-04T04:03:52;3.28;;;1.63;;
81934;SDS011;71405;47.674;-2.050;2024-02-04T04:06:17;4.18;;;1.90;;
81934;SDS011;71405;47.674;-2.050;2024-02-04T04:08:43;2.05;;;1.50;;
81934;SDS011;71405;47.674;-2.050;2024-02-04T04:11:09;2.55;;;1.50;;
81934;SDS011;71405;47.674;-2.050;2024-02-04T04:13:36;2.15;;;1.52;;
81934;SDS011;71405;47.674;-2.050;2024-02-04T04:16:05;2.80;;;1.55;;
81934;SDS011;71405;47.674;-2.050;2024-02-04T04:18:31;4.07;;;2.00;;
81934;SDS011;71405;47.674;-2.050;2024-02-04T04:20:57;3.03;;;1.75;;
81934;SDS011;71405;47.674;-2.050;2024-02-04T04:23:22;3.83;;;1.60;;
81934;SDS011;71405;47.674;-2.050;2024-02-04T04:25:48;2.80;;;1.63;;
81934;SDS011;71405;47.674;-2.050;2024-02-04T04:28:14;3.05;;;1.67;;
81934;SDS011;71405;47.674;-2.050;2024-02-04T04:30:39;3.08;;;1.75;;
81934;SDS011;71405;47.674;-2.050;2024-02-04T04:33:05;3.53;;;1.70;;
81934;SDS011;71405;47.674;-2.050;2024-02-04T04:35:31;3.78;;;1.63;;
81934;SDS011;71405;47.674;-2.050;2024-02-04T04:37:57;2.92;;;1.70;;
81934;SDS011;71405;47.674;-2.050;2024-02-04T04:40:23;3.90;;;1.45;;
81934;SDS011;71405;47.674;-2.050;2024-02-04T04:42:48;3.78;;;1.50;;
81934;SDS011;71405;47.674;-2.050;2024-02-04T04:45:14;3.05;;;1.50;;
81934;SDS011;71405;47.674;-2.050;2024-02-04T04:47:40;2.28;;;1.45;;
81934;SDS011;71405;47.674;-2.050;2024-02-04T04:50:06;3.65;;;1.73;;
81934;SDS011;71405;47.674;-2.050;2024-02-04T04:52:32;2.72;;;1.60;;
81934;SDS011;71405;47.674;-2.050;2024-02-04T04:54:58;2.92;;;1.55;;
81934;SDS011;71405;47.674;-2.050;2024-02-04T04:57:23;3.45;;;1.80;;
81934;SDS011;71405;47.674;-2.050;2024-02-04T04:59:49;2.80;;;1.50;;
81934;SDS011;71405;47.674;-2.050;2024-02-04T05:02:15;2.97;;;1.60;;
81934;SDS011;71405;47.674;-2.050;2024-02-04T05:04:44;2.97;;;1.55;;
81934;SDS011;71405;47.674;-2.050;2024-02-04T05:07:10;2.97;;;1.40;;
81934;SDS011;71405;47.674;-2.050;2024-02-04T05:09:36;5.38;;;1.63;;
81934;SDS011;71405;47.674;-2.050;2024-02-04T05:12:06;4.45;;;1.40;;
81934;SDS011;71405;47.674;-2.050;2024-02-04T05:14:33;1.98;;;1.38;;
81934;SDS011;71405;47.674;-2.050;2024-02-04T05:16:59;3.83;;;1.73;;
81934;SDS011;71405;47.674;-2.050;2024-02-04T05:19:25;3.10;;;1.40;;
81934;SDS011;71405;47.674;-2.050;2024-02-04T05:21:50;2.55;;;1.40;;
81934;SDS011;71405;47.674;-2.050;2024-02-04T05:24:16;3.15;;;1.75;;
81934;SDS011;71405;47.674;-2.050;2024-02-04T05:26:42;3.80;;;1.60;;
81934;SDS011;71405;47.674;-2.050;2024-02-04T05:29:07;2.17;;;1.30;;
81934;SDS011;71405;47.674;-2.050;2024-02-04T05:31:33;3.13;;;1.55;;
81934;SDS011;71405;47.674;-2.050;2024-02-04T05:33:58;4.18;;;1.70;;
81934;SDS011;71405;47.674;-2.050;2024-02-04T05:36:24;2.97;;;1.30;;
81934;SDS011;71405;47.674;-2.050;2024-02-04T05:38:50;3.58;;;1.60;;
81934;SDS011;71405;47.674;-2.050;2024-02-04T05:41:15;3.90;;;1.67;;
81934;SDS011;71405;47.674;-2.050;2024-02-04T05:43:41;5.20;;;1.70;;
81934;SDS011;71405;47.674;-2.050;2024-02-04T05:46:06;2.72;;;1.60;;
81934;SDS011;71405;47.674;-2.050;2024-02-04T05:48:32;3.30;;;1.50;;
81934;SDS011;71405;47.674;-2.050;2024-02-04T05:50:59;5.07;;;1.83;;
81934;SDS011;71405;47.674;-2.050;2024-02-04T05:53:25;2.60;;;1.42;;
81934;SDS011;71405;47.674;-2.050;2024-02-04T05:55:50;3.05;;;1.50;;
81934;SDS011;71405;47.674;-2.050;2024-02-04T05:58:16;3.85;;;1.67;;
81934;SDS011;71405;47.674;-2.050;2024-02-04T06:00:42;4.20;;;1.42;;
81934;SDS011;71405;47.674;-2.050;2024-02-04T06:03:07;5.60;;;1.50;;
81934;SDS011;71405;47.674;-2.050;2024-02-04T06:05:33;1.98;;;1.40;;
81934;SDS011;71405;47.674;-2.050;2024-02-04T06:07:59;2.67;;;1.67;;
81934;SDS011;71405;47.674;-2.050;2024-02-04T06:10:24;2.20;;;1.30;;
81934;SDS011;71405;47.674;-2.050;2024-02-04T06:12:50;3.20;;;1.67;;
81934;SDS011;71405;47.674;-2.050;2024-02-04T06:15:16;3.13;;;1.67;;
81934;SDS011;71405;47.674;-2.050;2024-02-04T06:17:42;2.33;;;1.40;;
81934;SDS011;71405;47.674;-2.050;2024-02-04T06:20:08;3.38;;;1.50;;
81934;SDS011;71405;47.674;-2.050;2024-02-04T06:22:35;4.10;;;1.60;;
81934;SDS011;71405;47.674;-2.050;2024-02-04T06:25:04;4.32;;;1.42;;
81934;SDS011;71405;47.674;-2.050;2024-02-04T06:27:30;5.20;;;1.65;;
81934;SDS011;71405;47.674;-2.050;2024-02-04T06:29:56;2.03;;;1.30;;
81934;SDS011;71405;47.674;-2.050;2024-02-04T06:32:22;3.75;;;1.60;;
81934;SDS011;71405;47.674;-2.050;2024-02-04T06:34:49;3.58;;;1.40;;
81934;SDS011;71405;47.674;-2.050;2024-02-04T06:37:16;2.50;;;1.30;;
81934;SDS011;71405;47.674;-2.050;2024-02-04T06:39:42;1.90;;;1.23;;
81934;SDS011;71405;47.674;-2.050;2024-02-04T06:42:08;4.00;;;1.70;;
81934;SDS011;71405;47.674;-2.050;2024-02-04T06:44:33;2.25;;;1.45;;
81934;SDS011;71405;47.674;-2.050;2024-02-04T06:46:59;3.22;;;1.38;;
81934;SDS011;71405;47.674;-2.050;2024-02-04T06:49:25;5.78;;;1.67;;
81934;SDS011;71405;47.674;-2.050;2024-02-04T06:51:51;3.28;;;1.58;;
81934;SDS011;71405;47.674;-2.050;2024-02-04T06:54:21;2.38;;;1.35;;
81934;SDS011;71405;47.674;-2.050;2024-02-04T06:56:48;3.75;;;1.60;;
81934;SDS011;71405;47.674;-2.050;2024-02-04T06:59:13;4.80;;;1.77;;
81934;SDS011;71405;47.674;-2.050;2024-02-04T07:01:39;4.75;;;1.80;;
81934;SDS011;71405;47.674;-2.050;2024-02-04T07:04:04;3.63;;;1.52;;
81934;SDS011;71405;47.674;-2.050;2024-02-04T07:06:30;2.78;;;1.30;;
81934;SDS011;71405;47.674;-2.050;2024-02-04T07:08:56;2.78;;;1.50;;
81934;SDS011;71405;47.674;-2.050;2024-02-04T07:11:21;2.33;;;1.40;;
81934;SDS011;71405;47.674;-2.050;2024-02-04T07:13:47;2.92;;;1.40;;
81934;SDS011;71405;47.674;-2.050;2024-02-04T07:16:13;3.50;;;1.65;;
81934;SDS011;71405;47.674;-2.050;2024-02-04T07:18:39;5.10;;;1.70;;
81934;SDS011;71405;47.674;-2.050;2024-02-04T07:21:04;3.80;;;1.48;;
81934;SDS011;71405;47.674;-2.050;2024-02-04T07:23:30;3.95;;;1.40;;
81934;SDS011;71405;47.674;-2.050;2024-02-04T07:25:56;4.57;;;1.48;;
81934;SDS011;71405;47.674;-2.050;2024-02-04T07:28:21;2.63;;;1.23;;
81934;SDS011;71405;47.674;-2.050;2024-02-04T07:30:47;3.97;;;1.63;;
81934;SDS011;71405;47.674;-2.050;2024-02-04T07:33:13;3.90;;;1.42;;
81934;SDS011;71405;47.674;-2.050;2024-02-04T07:35:38;5.13;;;1.50;;
81934;SDS011;71405;47.674;-2.050;2024-02-04T07:38:04;4.22;;;1.33;;
81934;SDS011;71405;47.674;-2.050;2024-02-04T07:40:29;2.38;;;1.33;;
81934;SDS011;71405;47.674;-2.050;2024-02-04T07:42:56;3.55;;;1.30;;
81934;SDS011;71405;47.674;-2.050;2024-02-04T07:45:22;3.70;;;1.60;;
81934;SDS011;71405;47.674;-2.050;2024-02-04T07:47:48;3.05;;;1.23;;
81934;SDS011;71405;47.674;-2.050;2024-02-04T07:50:13;3.40;;;1.50;;
81934;SDS011;71405;47.674;-2.050;2024-02-04T07:52:39;3.47;;;1.60;;
81934;SDS011;71405;47.674;-2.050;2024-02-04T07:55:04;4.00;;;1.50;;
81934;SDS011;71405;47.674;-2.050;2024-02-04T07:57:30;4.55;;;1.50;;
81934;SDS011;71405;47.674;-2.050;2024-02-04T07:59:56;3.30;;;1.40;;
81934;SDS011;71405;47.674;-2.050;2024-02-04T08:02:22;3.40;;;1.67;;
81934;SDS011;71405;47.674;-2.050;2024-02-04T08:04:48;2.97;;;1.38;;
81934;SDS011;71405;47.674;-2.050;2024-02-04T08:07:13;3.28;;;1.50;;
81934;SDS011;71405;47.674;-2.050;2024-02-04T08:09:39;2.83;;;1.40;;
81934;SDS011;71405;47.674;-2.050;2024-02-04T08:12:05;2.88;;;1.25;;
81934;SDS011;71405;47.674;-2.050;2024-02-04T08:14:31;3.53;;;1.45;;
81934;SDS011;71405;47.674;-2.050;2024-02-04T08:16:56;4.07;;;1.50;;
81934;SDS011;71405;47.674;-2.050;2024-02-04T08:19:22;4.88;;;2.00;;
81934;SDS011;71405;47.674;-2.050;2024-02-04T08:21:47;4.80;;;1.50;;
81934;SDS011;71405;47.674;-2.050;2024-02-04T08:24:13;2.72;;;1.48;;
81934;SDS011;71405;47.674;-2.050;2024-02-04T08:26:39;4.10;;;1.58;;
81934;SDS011;71405;47.674;-2.050;2024-02-04T08:29:04;4.72;;;1.50;;
81934;SDS011;71405;47.674;-2.050;2024-02-04T08:31:31;6.07;;;1.60;;
81934;SDS011;71405;47.674;-2.050;2024-02-04T08:33:58;4.43;;;1.73;;
81934;SDS011;71405;47.674;-2.050;2024-02-04T08:36:24;5.38;;;1.75;;
81934;SDS011;71405;47.674;-2.050;2024-02-04T08:38:49;3.35;;;1.40;;
81934;SDS011;71405;47.674;-2.050;2024-02-04T08:41:15;4.88;;;1.70;;
81934;SDS011;71405;47.674;-2.050;2024-02-04T08:43:41;2.88;;;1.45;;
81934;SDS011;71405;47.674;-2.050;2024-02-04T08:46:06;4.60;;;1.55;;
81934;SDS011;71405;47.674;-2.050;2024-02-04T08:48:32;4.28;;;1.65;;
81934;SDS011;71405;47.674;-2.050;2024-02-04T08:50:58;5.13;;;1.70;;
81934;SDS011;71405;47.674;-2.050;2024-02-04T08:53:23;5.07;;;1.83;;
81934;SDS011;71405;47.674;-2.050;2024-02-04T08:55:49;3.67;;;1.42;;
81934;SDS011;71405;47.674;-2.050;2024-02-04T08:58:15;4.10;;;1.38;;
81934;SDS011;71405;47.674;-2.050;2024-02-04T09:00:41;5.45;;;1.60;;
81934;SDS011;71405;47.674;-2.050;2024-02-04T09:03:06;3.30;;;1.27;;
81934;SDS011;71405;47.674;-2.050;2024-02-04T09:05:32;3.67;;;1.60;;
81934;SDS011;71405;47.674;-2.050;2024-02-04T09:07:58;4.85;;;1.50;;
81934;SDS011;71405;47.674;-2.050;2024-02-04T09:10:23;3.53;;;1.38;;
81934;SDS011;71405;47.674;-2.050;2024-02-04T09:12:49;6.18;;;1.85;;
81934;SDS011;71405;47.674;-2.050;2024-02-04T09:15:15;3.83;;;1.70;;
81934;SDS011;71405;47.674;-2.050;2024-02-04T09:17:40;4.75;;;1.67;;
81934;SDS011;71405;47.674;-2.050;2024-02-04T09:20:06;3.35;;;1.38;;
81934;SDS011;71405;47.674;-2.050;2024-02-04T09:22:32;3.72;;;1.58;;
81934;SDS011;71405;47.674;-2.050;2024-02-04T09:24:58;4.60;;;1.80;;
81934;SDS011;71405;47.674;-2.050;2024-02-04T09:27:24;5.28;;;1.60;;
81934;SDS011;71405;47.674;-2.050;2024-02-04T09:29:50;3.90;;;1.50;;
81934;SDS011;71405;47.674;-2.050;2024-02-04T09:32:16;4.88;;;1.73;;
81934;SDS011;71405;47.674;-2.050;2024-02-04T09:34:42;4.00;;;1.40;;
81934;SDS011;71405;47.674;-2.050;2024-02-04T09:37:08;4.30;;;1.75;;
81934;SDS011;71405;47.674;-2.050;2024-02-04T09:39:34;4.55;;;1.60;;
81934;SDS011;71405;47.674;-2.050;2024-02-04T09:42:00;4.75;;;1.80;;
81934;SDS011;71405;47.674;-2.050;2024-02-04T09:44:26;4.10;;;1.77;;
81934;SDS011;71405;47.674;-2.050;2024-02-04T09:46:52;3.50;;;1.52;;
81934;SDS011;71405;47.674;-2.050;2024-02-04T09:49:19;4.55;;;1.67;;
81934;SDS011;71405;47.674;-2.050;2024-02-04T09:51:46;5.78;;;1.77;;
81934;SDS011;71405;47.674;-2.050;2024-02-04T09:54:12;3.88;;;1.40;;
81934;SDS011;71405;47.674;-2.050;2024-02-04T09:56:41;4.13;;;1.60;;
81934;SDS011;71405;47.674;-2.050;2024-02-04T09:59:07;3.20;;;1.50;;
81934;SDS011;71405;47.674;-2.050;2024-02-04T10:01:33;5.32;;;1.70;;
81934;SDS011;71405;47.674;-2.050;2024-02-04T10:04:01;3.13;;;1.50;;
81934;SDS011;71405;47.674;-2.050;2024-02-04T10:06:27;5.38;;;1.67;;
81934;SDS011;71405;47.674;-2.050;2024-02-04T10:08:52;5.97;;;1.60;;
81934;SDS011;71405;47.674;-2.050;2024-02-04T10:11:18;4.18;;;1.60;;
81934;SDS011;71405;47.674;-2.050;2024-02-04T10:13:48;5.63;;;1.73;;
81934;SDS011;71405;47.674;-2.050;2024-02-04T10:16:15;5.00;;;1.90;;
81934;SDS011;71405;47.674;-2.050;2024-02-04T10:18:42;2.58;;;1.52;;
81934;SDS011;71405;47.674;-2.050;2024-02-04T10:21:15;3.30;;;1.73;;
81934;SDS011;71405;47.674;-2.050;2024-02-04T10:23:48;3.65;;;1.50;;
81934;SDS011;71405;47.674;-2.050;2024-02-04T10:26:14;5.47;;;1.90;;
81934;SDS011;71405;47.674;-2.050;2024-02-04T10:28:41;4.95;;;1.58;;
81934;SDS011;71405;47.674;-2.050;2024-02-04T10:31:09;4.78;;;1.77;;
81934;SDS011;71405;47.674;-2.050;2024-02-04T10:33:36;5.40;;;1.52;;
81934;SDS011;71405;47.674;-2.050;2024-02-04T10:36:02;5.63;;;1.67;;
81934;SDS011;71405;47.674;-2.050;2024-02-04T10:38:28;5.10;;;1.83;;
81934;SDS011;71405;47.674;-2.050;2024-02-04T10:40:54;4.47;;;1.70;;
81934;SDS011;71405;47.674;-2.050;2024-02-04T10:43:20;6.13;;;2.00;;
81934;SDS011;71405;47.674;-2.050;2024-02-04T10:45:48;4.38;;;1.88;;
81934;SDS011;71405;47.674;-2.050;2024-02-04T10:50:48;5.50;;;1.67;;
81934;SDS011;71405;47.674;-2.050;2024-02-04T10:53:16;5.13;;;1.90;;
81934;SDS011;71405;47.674;-2.050;2024-02-04T10:55:46;3.60;;;1.50;;
81934;SDS011;71405;47.674;-2.050;2024-02-04T10:58:13;4.90;;;1.50;;
81934;SDS011;71405;47.674;-2.050;2024-02-04T11:00:40;3.67;;;1.50;;
81934;SDS011;71405;47.674;-2.050;2024-02-04T11:03:06;5.40;;;2.05;;
81934;SDS011;71405;47.674;-2.050;2024-02-04T11:05:32;5.32;;;1.60;;
81934;SDS011;71405;47.674;-2.050;2024-02-04T11:08:01;3.83;;;1.65;;
81934;SDS011;71405;47.674;-2.050;2024-02-04T11:10:28;3.30;;;1.50;;
81934;SDS011;71405;47.674;-2.050;2024-02-04T11:12:56;4.85;;;1.73;;
81934;SDS011;71405;47.674;-2.050;2024-02-04T11:15:28;4.25;;;1.60;;
81934;SDS011;71405;47.674;-2.050;2024-02-04T11:18:07;3.08;;;1.40;;
81934;SDS011;71405;47.674;-2.050;2024-02-04T11:26:13;5.88;;;2.03;;
81934;SDS011;71405;47.674;-2.050;2024-02-04T11:28:41;8.88;;;5.10;;
81934;SDS011;71405;47.674;-2.050;2024-02-04T11:31:14;7.03;;;2.85;;
81934;SDS011;71405;47.674;-2.050;2024-02-04T11:33:42;8.25;;;2.30;;
81934;SDS011;71405;47.674;-2.050;2024-02-04T11:36:11;9.07;;;2.45;;
81934;SDS011;71405;47.674;-2.050;2024-02-04T11:38:39;9.18;;;2.90;;
81934;SDS011;71405;47.674;-2.050;2024-02-04T11:41:05;8.05;;;3.20;;
81934;SDS011;71405;47.674;-2.050;2024-02-04T11:43:32;11.25;;;3.08;;
81934;SDS011;71405;47.674;-2.050;2024-02-04T11:45:59;12.90;;;3.72;;
81934;SDS011;71405;47.674;-2.050;2024-02-04T11:48:29;10.35;;;2.83;;
81934;SDS011;71405;47.674;-2.050;2024-02-04T11:50:56;8.15;;;2.42;;
81934;SDS011;71405;47.674;-2.050;2024-02-04T11:53:23;12.07;;;3.20;;
81934;SDS011;71405;47.674;-2.050;2024-02-04T11:55:52;11.98;;;4.05;;
81934;SDS011;71405;47.674;-2.050;2024-02-04T11:58:18;10.48;;;3.15;;
81934;SDS011;71405;47.674;-2.050;2024-02-04T12:00:44;9.68;;;3.17;;
81934;SDS011;71405;47.674;-2.050;2024-02-04T12:03:10;14.13;;;3.83;;
81934;SDS011;71405;47.674;-2.050;2024-02-04T12:05:36;11.30;;;3.50;;
81934;SDS011;71405;47.674;-2.050;2024-02-04T12:08:07;11.43;;;3.53;;
81934;SDS011;71405;47.674;-2.050;2024-02-04T12:10:36;8.80;;;2.92;;
81934;SDS011;71405;47.674;-2.050;2024-02-04T12:13:03;8.55;;;3.10;;
81934;SDS011;71405;47.674;-2.050;2024-02-04T12:15:30;9.68;;;2.80;;
81934;SDS011;71405;47.674;-2.050;2024-02-04T12:18:09;9.85;;;3.00;;
81934;SDS011;71405;47.674;-2.050;2024-02-04T12:20:36;7.40;;;2.70;;
81934;SDS011;71405;47.674;-2.050;2024-02-04T12:23:02;9.00;;;3.00;;
81934;SDS011;71405;47.674;-2.050;2024-02-04T12:25:29;9.82;;;3.20;;
81934;SDS011;71405;47.674;-2.050;2024-02-04T12:27:57;7.82;;;2.50;;
81934;SDS011;71405;47.674;-2.050;2024-02-04T12:30:24;7.13;;;2.85;;
81934;SDS011;71405;47.674;-2.050;2024-02-04T12:32:57;10.18;;;3.53;;
81934;SDS011;71405;47.674;-2.050;2024-02-04T12:35:24;9.77;;;2.78;;
81934;SDS011;71405;47.674;-2.050;2024-02-04T12:37:54;11.20;;;2.83;;
81934;SDS011;71405;47.674;-2.050;2024-02-04T12:40:28;7.70;;;2.88;;
81934;SDS011;71405;47.674;-2.050;2024-02-04T12:42:58;8.88;;;3.25;;
81934;SDS011;71405;47.674;-2.050;2024-02-04T12:47:52;11.45;;;3.03;;
81934;SDS011;71405;47.674;-2.050;2024-02-04T12:50:19;7.80;;;2.50;;
81934;SDS011;71405;47.674;-2.050;2024-02-04T12:52:46;9.68;;;2.88;;
81934;SDS011;71405;47.674;-2.050;2024-02-04T12:55:26;8.38;;;2.70;;
81934;SDS011;71405;47.674;-2.050;2024-02-04T12:58:02;6.95;;;2.50;;
81934;SDS011;71405;47.674;-2.050;2024-02-04T13:00:39;9.03;;;2.77;;
81934;SDS011;71405;47.674;-2.050;2024-02-04T13:03:06;7.72;;;2.55;;
81934;SDS011;71405;47.674;-2.050;2024-02-04T13:05:33;7.60;;;2.63;;
81934;SDS011;71405;47.674;-2.050;2024-02-04T13:07:59;10.98;;;4.43;;
81934;SDS011;71405;47.674;-2.050;2024-02-04T13:10:30;11.10;;;4.63;;
81934;SDS011;71405;47.674;-2.050;2024-02-04T13:13:08;11.40;;;5.10;;
81934;SDS011;71405;47.674;-2.050;2024-02-04T13:15:42;10.32;;;3.65;;
81934;SDS011;71405;47.674;-2.050;2024-02-04T13:18:08;9.50;;;4.00;;
81934;SDS011;71405;47.674;-2.050;2024-02-04T13:23:06;6.80;;;2.88;;
81934;SDS011;71405;47.674;-2.050;2024-02-04T13:25:33;8.75;;;3.33;;
81934;SDS011;71405;47.674;-2.050;2024-02-04T13:27:59;8.13;;;3.33;;
81934;SDS011;71405;47.674;-2.050;2024-02-04T13:30:25;11.25;;;3.95;;
81934;SDS011;71405;47.674;-2.050;2024-02-04T13:32:51;29.83;;;8.45;;
81934;SDS011;71405;47.674;-2.050;2024-02-04T13:35:17;13.15;;;5.60;;
81934;SDS011;71405;47.674;-2.050;2024-02-04T13:37:43;24.00;;;8.10;;
81934;SDS011;71405;47.674;-2.050;2024-02-04T13:40:16;28.83;;;9.32;;
81934;SDS011;71405;47.674;-2.050;2024-02-04T13:42:46;29.37;;;10.17;;
81934;SDS011;71405;47.674;-2.050;2024-02-04T13:45:12;25.90;;;9.70;;
81934;SDS011;71405;47.674;-2.050;2024-02-04T13:47:42;29.13;;;13.27;;
81934;SDS011;71405;47.674;-2.050;2024-02-04T13:50:08;37.72;;;18.60;;
81934;SDS011;71405;47.674;-2.050;2024-02-04T13:52:35;113.85;;;79.65;;
81934;SDS011;71405;47.674;-2.050;2024-02-04T13:55:01;452.38;;;327.25;;
81934;SDS011;71405;47.674;-2.050;2024-02-04T13:57:30;509.48;;;364.45;;
81934;SDS011;71405;47.674;-2.050;2024-02-04T13:59:55;411.13;;;286.00;;
81934;SDS011;71405;47.674;-2.050;2024-02-04T14:02:21;347.95;;;258.75;;
81934;SDS011;71405;47.674;-2.050;2024-02-04T14:04:48;457.73;;;323.75;;
81934;SDS011;71405;47.674;-2.050;2024-02-04T14:07:14;499.05;;;367.75;;
81934;SDS011;71405;47.674;-2.050;2024-02-04T14:09:40;498.88;;;375.13;;
81934;SDS011;71405;47.674;-2.050;2024-02-04T14:12:05;492.67;;;365.27;;
81934;SDS011;71405;47.674;-2.050;2024-02-04T14:14:31;504.27;;;381.92;;
81934;SDS011;71405;47.674;-2.050;2024-02-04T14:16:57;496.95;;;371.33;;
81934;SDS011;71405;47.674;-2.050;2024-02-04T14:19:23;483.48;;;372.50;;
81934;SDS011;71405;47.674;-2.050;2024-02-04T14:21:48;457.88;;;347.15;;
81934;SDS011;71405;47.674;-2.050;2024-02-04T14:24:14;440.63;;;344.70;;
81934;SDS011;71405;47.674;-2.050;2024-02-04T14:26:40;391.80;;;308.10;;
81934;SDS011;71405;47.674;-2.050;2024-02-04T14:29:06;392.50;;;302.02;;
81934;SDS011;71405;47.674;-2.050;2024-02-04T14:31:32;374.42;;;296.55;;
81934;SDS011;71405;47.674;-2.050;2024-02-04T14:33:58;372.63;;;288.73;;
81934;SDS011;71405;47.674;-2.050;2024-02-04T14:36:24;346.30;;;274.63;;
81934;SDS011;71405;47.674;-2.050;2024-02-04T14:38:49;362.00;;;280.30;;
81934;SDS011;71405;47.674;-2.050;2024-02-04T14:41:16;361.40;;;285.13;;
81934;SDS011;71405;47.674;-2.050;2024-02-04T14:43:41;359.50;;;287.10;;
81934;SDS011;71405;47.674;-2.050;2024-02-04T14:46:07;344.73;;;273.60;;